Terminal Aerodrome Forecast
Issued by NWS

Home | Current Version | Previous Version | Text Only | Print | Product List | Glossary On
Versions: 1 2 3 4 5 6 7 8 9 10 11 12 13 14 15
000
FTUS44 KTSA 011120
TAFBVO
TAF
KBVO 011120Z 0112/0212 VRB03KT P6SM SKC
     FM011500 33007KT P6SM SCT080 SCT250
     FM011900 36005KT P6SM VCSH BKN050
     FM020000 34005KT P6SM VCSH BKN035 PROB30 0202/0208 6SM -RA
      BKN025
     FM020800 36007KT P6SM BKN025=

USA.gov is the U.S. government's official web portal to all federal, state and local government web resources and services.